createdAt,value
2017-09-03T00:00:09.945Z,11.80
2017-09-03T00:02:38.268Z,10.00
2017-09-03T00:05:06.551Z,10.07
2017-09-03T00:07:34.830Z,8.10
2017-09-03T00:10:03.090Z,8.80
2017-09-03T00:12:32.091Z,8.13
2017-09-03T00:15:00.435Z,9.03
2017-09-03T00:17:28.649Z,9.40
2017-09-03T00:19:57.686Z,9.47
2017-09-03T00:22:25.932Z,9.17
2017-09-03T00:24:54.173Z,8.83
2017-09-03T00:27:22.518Z,10.20
2017-09-03T00:29:50.799Z,9.70
2017-09-03T00:32:19.054Z,8.80
2017-09-03T00:34:47.329Z,8.50
2017-09-03T00:37:16.383Z,8.30
2017-09-03T00:39:44.661Z,8.53
2017-09-03T00:42:13.028Z,9.03
2017-09-03T00:44:41.310Z,9.73
2017-09-03T00:47:09.570Z,11.23
2017-09-03T00:49:38.573Z,9.20
2017-09-03T00:52:06.838Z,8.43
2017-09-03T00:54:35.154Z,9.10
2017-09-03T00:57:03.465Z,9.20
2017-09-03T00:59:31.676Z,9.20
2017-09-03T01:02:00.706Z,9.63
2017-09-03T01:04:28.946Z,9.93
2017-09-03T01:06:57.265Z,8.50
2017-09-03T01:09:25.513Z,8.70
2017-09-03T01:11:53.763Z,7.73
2017-09-03T01:14:22.111Z,9.20
2017-09-03T01:16:50.375Z,8.80
2017-09-03T01:19:19.628Z,8.37
2017-09-03T01:21:47.856Z,9.77
2017-09-03T01:24:16.161Z,12.47
2017-09-03T01:26:44.427Z,8.77
2017-09-03T01:29:12.719Z,8.97
2017-09-03T01:31:40.979Z,9.50
2017-09-03T01:34:09.283Z,8.30
2017-09-03T01:36:37.574Z,7.53
2017-09-03T01:39:05.834Z,12.90
2017-09-03T01:41:34.093Z,8.30
2017-09-03T01:44:02.359Z,8.33
2017-09-03T01:46:30.702Z,8.67
2017-09-03T01:48:58.962Z,7.77
2017-09-03T01:51:27.244Z,9.10
2017-09-03T01:53:55.534Z,8.60
2017-09-03T01:56:23.780Z,8.13
2017-09-03T01:58:52.041Z,7.07
2017-09-03T02:01:20.659Z,8.60
2017-09-03T02:03:48.949Z,8.63
2017-09-03T02:06:17.190Z,7.70
2017-09-03T02:08:45.514Z,8.13
2017-09-03T02:11:13.795Z,8.63
2017-09-03T02:13:42.082Z,8.23
2017-09-03T02:16:10.358Z,10.43
2017-09-03T02:18:38.632Z,14.47
2017-09-03T02:21:06.874Z,8.73
2017-09-03T02:23:35.928Z,12.70
2017-09-03T02:26:04.299Z,9.70
2017-09-03T02:28:32.559Z,9.00
2017-09-03T02:31:00.823Z,8.37
2017-09-03T02:33:29.080Z,9.47
2017-09-03T02:35:58.378Z,8.97
2017-09-03T02:38:26.730Z,10.80
2017-09-03T02:40:54.981Z,8.80
2017-09-03T02:43:23.385Z,8.23
2017-09-03T02:45:51.682Z,10.90
2017-09-03T02:48:19.926Z,11.70
2017-09-03T02:50:48.198Z,12.10
2017-09-03T02:53:16.527Z,11.83
2017-09-03T02:55:44.827Z,12.50
2017-09-03T02:58:13.082Z,13.80
2017-09-03T03:00:41.466Z,13.67
2017-09-03T03:03:09.743Z,15.53
2017-09-03T03:05:38.006Z,14.23
2017-09-03T03:08:06.341Z,14.13
2017-09-03T03:10:34.696Z,14.67
2017-09-03T03:13:02.943Z,17.70
2017-09-03T03:15:31.259Z,15.50
2017-09-03T03:17:59.513Z,14.30
2017-09-03T03:20:28.788Z,14.40
2017-09-03T03:22:57.118Z,12.40
2017-09-03T03:25:25.447Z,12.47
2017-09-03T03:27:53.774Z,12.40
2017-09-03T03:30:22.037Z,10.80
2017-09-03T03:32:50.290Z,11.30
2017-09-03T03:35:18.562Z,10.37
2017-09-03T03:37:46.807Z,12.90
2017-09-03T03:40:15.065Z,9.77
2017-09-03T03:42:43.360Z,11.87
2017-09-03T03:45:11.683Z,10.70
2017-09-03T03:47:39.904Z,9.33
2017-09-03T03:50:09.023Z,8.73
2017-09-03T03:52:37.267Z,9.17
2017-09-03T03:55:06.303Z,11.03
2017-09-03T03:57:34.546Z,10.47
2017-09-03T04:00:02.858Z,9.90
2017-09-03T04:02:31.155Z,10.73
2017-09-03T04:04:59.430Z,10.50
2017-09-03T04:07:27.728Z,12.03
2017-09-03T04:09:55.992Z,11.03
2017-09-03T04:12:24.233Z,16.30
2017-09-03T04:14:52.555Z,13.53
2017-09-03T04:17:20.828Z,11.50
2017-09-03T04:19:49.116Z,12.67
2017-09-03T04:22:17.386Z,12.70
2017-09-03T04:24:45.643Z,12.63
2017-09-03T04:27:13.961Z,15.10
2017-09-03T04:29:42.220Z,13.70
2017-09-03T04:32:10.562Z,13.97
2017-09-03T04:34:38.911Z,12.60
2017-09-03T04:37:07.234Z,11.90
2017-09-03T04:39:35.474Z,11.97
2017-09-03T04:42:03.751Z,9.70
2017-09-03T04:44:32.043Z,10.20
2017-09-03T04:47:00.300Z,12.07
2017-09-03T04:49:28.594Z,11.07
2017-09-03T04:51:56.857Z,11.40
2017-09-03T04:54:25.166Z,10.80
2017-09-03T04:56:53.434Z,14.50
2017-09-03T04:59:21.700Z,11.23
2017-09-03T05:01:50.738Z,12.30
2017-09-03T05:04:18.982Z,13.73
2017-09-03T05:06:47.817Z,11.00
2017-09-03T05:09:16.327Z,14.03
2017-09-03T05:11:44.670Z,11.53
2017-09-03T05:14:12.969Z,17.23
2017-09-03T05:16:41.222Z,18.43
2017-09-03T05:19:09.507Z,16.10
2017-09-03T05:21:37.825Z,17.77
2017-09-03T05:24:06.176Z,22.67
2017-09-03T05:26:34.426Z,24.17
2017-09-03T05:29:02.710Z,21.13
2017-09-03T05:31:31.010Z,20.93
2017-09-03T05:33:59.298Z,20.10
2017-09-03T05:36:27.550Z,19.70
2017-09-03T05:38:55.831Z,22.77
2017-09-03T05:41:24.096Z,20.27
2017-09-03T05:43:53.703Z,25.10
2017-09-03T05:46:21.957Z,20.70
2017-09-03T05:48:50.243Z,18.23
2017-09-03T05:51:18.631Z,21.13
2017-09-03T05:53:46.878Z,19.23
2017-09-03T05:56:15.161Z,16.27
2017-09-03T05:58:43.433Z,17.83
2017-09-03T06:01:11.687Z,16.77
2017-09-03T06:03:39.959Z,15.60
2017-09-03T06:06:08.210Z,17.03
2017-09-03T06:08:36.487Z,15.80
2017-09-03T06:11:04.746Z,17.43
2017-09-03T06:13:33.032Z,25.40
2017-09-03T06:16:01.286Z,18.57
2017-09-03T06:18:29.541Z,16.40
2017-09-03T06:20:58.581Z,16.93
2017-09-03T06:23:26.853Z,15.90
2017-09-03T06:25:55.127Z,16.23
2017-09-03T06:28:23.380Z,16.53
2017-09-03T06:30:51.706Z,17.93
2017-09-03T06:33:19.967Z,13.40
2017-09-03T06:35:48.240Z,13.20
2017-09-03T06:38:16.585Z,16.90
2017-09-03T06:40:44.827Z,21.80
2017-09-03T06:43:13.111Z,15.33
2017-09-03T06:45:41.399Z,15.80
2017-09-03T06:48:09.678Z,15.33
2017-09-03T06:50:37.950Z,25.20
2017-09-03T06:53:06.242Z,14.53
2017-09-03T06:55:34.507Z,13.00
2017-09-03T06:58:02.757Z,16.93
2017-09-03T07:00:31.111Z,18.70
2017-09-03T07:02:59.346Z,15.33
2017-09-03T07:05:27.638Z,14.00
2017-09-03T07:07:55.935Z,13.90
2017-09-03T07:10:24.207Z,14.20
2017-09-03T07:12:52.467Z,13.80
2017-09-03T07:15:20.753Z,14.30
2017-09-03T07:17:49.055Z,21.60
2017-09-03T07:20:17.442Z,16.37
2017-09-03T07:22:45.702Z,16.00
2017-09-03T07:25:14.030Z,14.07
2017-09-03T07:27:42.286Z,14.10
2017-09-03T07:30:10.563Z,17.03
2017-09-03T07:32:39.862Z,17.40
2017-09-03T07:35:08.124Z,15.03
2017-09-03T07:37:36.408Z,13.50
2017-09-03T07:40:04.703Z,15.73
2017-09-03T07:42:32.978Z,15.37
2017-09-03T07:45:01.222Z,15.03
2017-09-03T07:47:29.507Z,17.73
2017-09-03T07:49:57.842Z,17.40
2017-09-03T07:52:26.090Z,19.03
2017-09-03T07:54:54.392Z,16.67
2017-09-03T07:57:22.654Z,17.23
2017-09-03T07:59:50.954Z,20.20
2017-09-03T08:02:19.234Z,20.60
2017-09-03T08:04:47.482Z,22.87
2017-09-03T08:07:15.767Z,20.10
2017-09-03T08:09:44.018Z,18.97
2017-09-03T08:12:12.361Z,21.13
2017-09-03T08:14:40.615Z,18.10
2017-09-03T08:17:08.960Z,22.00
2017-09-03T08:19:37.208Z,25.10
2017-09-03T08:22:05.486Z,23.13
2017-09-03T08:24:33.752Z,20.00
2017-09-03T08:27:02.062Z,22.53
2017-09-03T08:29:30.436Z,21.50
2017-09-03T08:31:58.725Z,22.83
2017-09-03T08:34:26.980Z,26.50
2017-09-03T08:36:55.281Z,22.70
2017-09-03T08:39:23.601Z,24.70
2017-09-03T08:41:51.838Z,24.77
2017-09-03T08:44:20.107Z,31.07
2017-09-03T08:46:48.400Z,25.30
2017-09-03T08:49:16.730Z,28.53
2017-09-03T08:51:45.000Z,28.83
2017-09-03T08:54:13.294Z,31.63
2017-09-03T08:56:41.730Z,34.67
2017-09-03T08:59:09.986Z,27.80
2017-09-03T09:01:38.244Z,28.07
2017-09-03T09:04:07.291Z,31.30
2017-09-03T09:06:35.570Z,29.37
2017-09-03T09:09:03.836Z,29.87
2017-09-03T09:11:32.130Z,27.83
2017-09-03T09:14:00.407Z,28.33
2017-09-03T09:16:28.663Z,26.77
2017-09-03T09:18:56.969Z,26.53
2017-09-03T09:21:25.241Z,29.43
2017-09-03T09:23:53.519Z,25.83
2017-09-03T09:26:21.771Z,24.77
2017-09-03T09:28:50.799Z,25.17
2017-09-03T09:31:19.062Z,22.60
2017-09-03T09:33:48.087Z,24.23
2017-09-03T09:36:16.340Z,23.13
2017-09-03T09:38:44.626Z,21.13
2017-09-03T09:41:12.874Z,22.90
2017-09-03T09:43:41.735Z,20.90
2017-09-03T09:46:10.003Z,20.90
2017-09-03T09:48:38.257Z,20.10
2017-09-03T09:51:06.510Z,22.20
2017-09-03T09:53:34.780Z,20.97
2017-09-03T09:56:03.043Z,19.70
2017-09-03T09:58:31.289Z,19.10
2017-09-03T10:00:59.563Z,22.30
2017-09-03T10:03:27.804Z,19.33
2017-09-03T10:05:56.076Z,21.43
2017-09-03T10:08:24.422Z,21.70
2017-09-03T10:10:52.706Z,20.53
2017-09-03T10:13:20.954Z,21.30
2017-09-03T10:15:49.993Z,18.90
2017-09-03T10:18:18.251Z,19.50
2017-09-03T10:20:46.511Z,19.20
2017-09-03T10:23:14.760Z,19.57
2017-09-03T10:25:43.027Z,19.80
2017-09-03T10:28:11.295Z,19.97
2017-09-03T10:30:39.675Z,18.83
2017-09-03T10:33:07.927Z,17.00
2017-09-03T10:35:36.247Z,18.90
2017-09-03T10:38:04.503Z,18.83
2017-09-03T10:40:32.771Z,19.97
2017-09-03T10:43:02.098Z,18.03
2017-09-03T10:45:30.421Z,18.60
2017-09-03T10:47:58.642Z,17.57
2017-09-03T10:50:26.959Z,18.43
2017-09-03T10:52:55.213Z,17.77
2017-09-03T10:55:23.528Z,18.37
2017-09-03T10:57:51.799Z,15.40
2017-09-03T11:00:20.058Z,16.00
2017-09-03T11:02:48.365Z,14.80
2017-09-03T11:05:16.621Z,13.13
2017-09-03T11:07:44.917Z,13.23
2017-09-03T11:10:13.193Z,13.20
2017-09-03T11:12:41.468Z,11.30
2017-09-03T11:15:09.788Z,10.73
2017-09-03T11:17:38.035Z,11.37
2017-09-03T11:20:06.351Z,10.83
2017-09-03T11:22:34.693Z,12.50
2017-09-03T11:25:02.945Z,11.27
2017-09-03T11:27:31.199Z,11.80
2017-09-03T11:29:59.547Z,11.57
2017-09-03T11:32:27.818Z,9.80
2017-09-03T11:34:56.099Z,10.80
2017-09-03T11:37:24.407Z,9.83
2017-09-03T11:39:52.662Z,8.63
2017-09-03T11:42:20.950Z,5.70
2017-09-03T11:44:49.194Z,6.00
2017-09-03T11:47:18.222Z,7.47
2017-09-03T11:49:46.461Z,6.10
2017-09-03T11:52:14.714Z,8.30
2017-09-03T11:54:43.008Z,10.70
2017-09-03T11:57:12.080Z,11.90
2017-09-03T11:59:40.345Z,9.00
2017-09-03T12:02:08.619Z,7.60
2017-09-03T12:04:36.912Z,8.93
2017-09-03T12:07:05.176Z,6.50
2017-09-03T12:09:33.415Z,7.87
2017-09-03T12:12:01.675Z,7.83
2017-09-03T12:14:30.194Z,8.27
2017-09-03T12:16:58.516Z,7.30
2017-09-03T12:19:26.823Z,7.17
2017-09-03T12:21:55.053Z,6.57
2017-09-03T12:24:24.171Z,7.80
2017-09-03T12:26:54.483Z,7.67
2017-09-03T12:29:23.611Z,11.20
2017-09-03T12:31:51.854Z,9.93
2017-09-03T12:34:20.891Z,9.13
2017-09-03T12:36:49.114Z,9.07
2017-09-03T12:39:17.374Z,9.13
2017-09-03T12:41:45.621Z,8.87
2017-09-03T12:44:13.920Z,9.50
2017-09-03T12:46:42.166Z,8.80
2017-09-03T12:49:10.419Z,9.60
2017-09-03T12:51:38.672Z,9.23
2017-09-03T12:54:06.927Z,9.00
2017-09-03T12:56:35.174Z,8.57
2017-09-03T12:59:03.494Z,8.60
2017-09-03T13:01:31.751Z,11.13
2017-09-03T13:04:00.003Z,9.00
2017-09-03T13:06:28.308Z,9.87
2017-09-03T13:08:56.557Z,8.40
2017-09-03T13:11:24.894Z,11.27
2017-09-03T13:13:53.147Z,9.10
2017-09-03T13:16:21.454Z,8.70
2017-09-03T13:18:49.728Z,9.20
2017-09-03T13:21:18.023Z,7.17
2017-09-03T13:23:46.266Z,8.30
2017-09-03T13:26:14.533Z,14.50
2017-09-03T13:28:42.874Z,10.93
2017-09-03T13:31:11.121Z,7.97
2017-09-03T13:33:39.365Z,10.50
2017-09-03T13:36:07.724Z,9.57
2017-09-03T13:38:35.990Z,12.83
2017-09-03T13:41:04.252Z,9.30
2017-09-03T13:43:32.487Z,9.13
2017-09-03T13:46:00.831Z,9.43
2017-09-03T13:48:29.070Z,7.63
2017-09-03T13:50:57.330Z,11.07
2017-09-03T13:53:25.665Z,9.80
2017-09-03T13:55:53.955Z,10.00
2017-09-03T13:58:22.214Z,11.53
2017-09-03T14:00:50.470Z,9.40
2017-09-03T14:03:18.798Z,9.67
2017-09-03T14:05:47.071Z,11.10
2017-09-03T14:08:15.362Z,8.40
2017-09-03T14:10:43.666Z,6.47
2017-09-03T14:13:11.928Z,6.43
2017-09-03T14:15:40.179Z,6.70
2017-09-03T14:18:08.439Z,8.30
2017-09-03T14:20:36.704Z,7.53
2017-09-03T14:23:04.941Z,8.90
2017-09-03T14:25:33.272Z,7.00
2017-09-03T14:28:01.493Z,6.60
2017-09-03T14:30:29.772Z,11.63
2017-09-03T14:32:58.463Z,8.47
2017-09-03T14:35:27.466Z,7.00
2017-09-03T14:37:55.726Z,8.40
2017-09-03T14:40:24.726Z,8.87
2017-09-03T14:42:52.983Z,7.43
2017-09-03T14:45:21.226Z,8.53
2017-09-03T14:47:49.511Z,9.00
2017-09-03T14:50:17.761Z,12.57
2017-09-03T14:52:46.031Z,8.70
2017-09-03T14:55:15.041Z,9.07
2017-09-03T14:57:43.347Z,8.00
2017-09-03T15:00:11.579Z,8.33
2017-09-03T15:02:40.599Z,9.30
2017-09-03T15:05:08.849Z,8.90
2017-09-03T15:07:37.096Z,9.10
2017-09-03T15:10:05.331Z,6.03
2017-09-03T15:12:34.354Z,6.67
2017-09-03T15:15:02.638Z,5.60
2017-09-03T15:17:30.918Z,5.47
2017-09-03T15:19:59.155Z,7.90
2017-09-03T15:22:27.411Z,4.70
2017-09-03T15:24:55.660Z,4.50
2017-09-03T15:27:25.963Z,5.50
2017-09-03T15:29:54.306Z,4.83
2017-09-03T15:32:22.576Z,4.90
2017-09-03T15:34:50.831Z,6.20
2017-09-03T15:37:19.085Z,5.27
2017-09-03T15:39:47.334Z,4.00
2017-09-03T15:42:15.679Z,3.97
2017-09-03T15:44:43.974Z,4.00
2017-09-03T15:47:12.224Z,3.83
2017-09-03T15:49:40.483Z,3.23
2017-09-03T15:52:09.080Z,3.80
2017-09-03T15:54:37.334Z,3.73
2017-09-03T15:57:05.584Z,4.70
2017-09-03T15:59:33.881Z,5.57
2017-09-03T16:02:02.091Z,6.63
2017-09-03T16:04:31.332Z,8.07
2017-09-03T16:06:59.620Z,6.23
2017-09-03T16:09:27.892Z,6.13
2017-09-03T16:11:56.212Z,5.30
2017-09-03T16:14:24.438Z,4.37
2017-09-03T16:16:53.465Z,4.57
2017-09-03T16:19:21.734Z,5.37
2017-09-03T16:21:49.970Z,4.43
2017-09-03T16:24:18.995Z,5.30
2017-09-03T16:26:47.238Z,3.47
2017-09-03T16:29:15.574Z,4.97
2017-09-03T16:31:43.864Z,4.10
2017-09-03T16:34:12.197Z,6.73
2017-09-03T16:36:40.520Z,3.60
2017-09-03T16:39:08.799Z,3.63
2017-09-03T16:41:37.035Z,3.97
2017-09-03T16:44:05.288Z,3.40
2017-09-03T16:46:33.533Z,4.40
2017-09-03T16:49:01.792Z,4.00
2017-09-03T16:51:30.799Z,5.20
2017-09-03T16:53:59.807Z,4.37
2017-09-03T16:56:28.098Z,4.43
2017-09-03T16:58:56.340Z,3.97
2017-09-03T17:01:24.600Z,7.20
2017-09-03T17:03:52.834Z,4.47
2017-09-03T17:06:21.100Z,3.60
2017-09-03T17:08:49.330Z,3.57
2017-09-03T17:11:17.586Z,4.10
2017-09-03T17:13:45.826Z,3.53
2017-09-03T17:16:14.852Z,4.50
2017-09-03T17:18:43.099Z,4.93
2017-09-03T17:21:11.683Z,4.00
2017-09-03T17:23:39.927Z,3.93
2017-09-03T17:26:08.174Z,3.43
2017-09-03T17:28:36.420Z,4.00
2017-09-03T17:31:09.389Z,3.70
2017-09-03T17:33:37.626Z,4.10
2017-09-03T17:36:09.564Z,4.27
2017-09-03T17:38:37.801Z,5.73
2017-09-03T17:41:06.990Z,2.93
2017-09-03T17:43:35.232Z,3.70
2017-09-03T17:49:02.866Z,4.73
2017-09-03T17:51:31.115Z,4.40
2017-09-03T17:53:59.358Z,5.57
2017-09-03T17:56:27.611Z,8.40
2017-09-03T17:58:55.848Z,6.32
2017-09-03T18:01:24.120Z,5.20
2017-09-03T18:03:52.360Z,6.60
2017-09-03T18:06:20.615Z,6.73
2017-09-03T18:08:48.847Z,9.07
2017-09-03T18:11:17.121Z,5.13
2017-09-03T18:13:45.355Z,5.23
2017-09-03T18:16:13.602Z,6.33
2017-09-03T18:18:41.861Z,5.07
2017-09-03T18:21:10.861Z,5.63
2017-09-03T18:23:39.114Z,5.40
2017-09-03T18:26:07.356Z,4.50
2017-09-03T18:28:38.079Z,6.63
2017-09-03T18:31:09.059Z,5.83
2017-09-03T18:33:37.384Z,5.50
2017-09-03T18:36:21.296Z,5.87
2017-09-03T18:41:54.074Z,6.80
2017-09-03T18:44:22.306Z,6.30
2017-09-03T18:46:51.471Z,6.90
2017-09-03T18:49:20.483Z,5.80
2017-09-03T18:51:49.288Z,5.90
2017-09-03T18:54:17.543Z,6.40
2017-09-03T18:56:45.853Z,7.50
2017-09-03T18:59:19.055Z,9.90
2017-09-03T19:01:48.117Z,5.27
2017-09-03T19:04:17.298Z,6.57
2017-09-03T19:06:46.341Z,6.60
2017-09-03T19:09:14.602Z,6.70
2017-09-03T19:11:42.855Z,8.33
2017-09-03T19:14:11.123Z,9.30
2017-09-03T19:16:39.363Z,6.87
2017-09-03T19:19:07.623Z,6.03
2017-09-03T19:21:36.119Z,5.70
2017-09-03T19:24:04.395Z,5.47
2017-09-03T19:26:32.654Z,6.40
2017-09-03T19:29:01.671Z,6.10
2017-09-03T19:31:29.918Z,6.43
2017-09-03T19:33:58.182Z,5.93
2017-09-03T19:36:26.420Z,7.10
2017-09-03T19:38:54.694Z,6.17
2017-09-03T19:41:22.979Z,5.53
2017-09-03T19:43:51.246Z,5.80
2017-09-03T19:46:19.493Z,5.90
2017-09-03T19:48:47.762Z,6.73
2017-09-03T19:51:16.004Z,6.17
2017-09-03T19:53:44.270Z,6.47
2017-09-03T19:56:12.584Z,7.23
2017-09-03T19:58:40.827Z,9.53
2017-09-03T20:01:09.128Z,6.40
2017-09-03T20:03:37.498Z,6.07
2017-09-03T20:06:05.742Z,5.67
2017-09-03T20:08:34.061Z,6.20
2017-09-03T20:11:02.326Z,7.73
2017-09-03T20:13:30.566Z,5.40
2017-09-03T20:15:59.448Z,6.73
2017-09-03T20:18:27.794Z,5.80
2017-09-03T20:20:56.077Z,5.30
2017-09-03T20:23:24.404Z,5.43
2017-09-03T20:25:52.747Z,7.50
2017-09-03T20:28:21.052Z,7.20
2017-09-03T20:30:49.407Z,7.53
2017-09-03T20:33:17.642Z,6.60
2017-09-03T20:35:46.020Z,6.57
2017-09-03T20:38:14.363Z,5.90
2017-09-03T20:40:42.859Z,6.07
2017-09-03T20:43:11.119Z,5.90
2017-09-03T20:45:39.539Z,7.37
2017-09-03T20:48:07.798Z,8.33
2017-09-03T20:50:36.168Z,7.50
2017-09-03T20:53:04.400Z,7.20
2017-09-03T20:55:32.769Z,6.77
2017-09-03T20:58:01.010Z,6.70
2017-09-03T21:00:29.262Z,5.77
2017-09-03T21:02:57.502Z,6.37
2017-09-03T21:05:25.884Z,6.50
2017-09-03T21:07:54.101Z,6.70
2017-09-03T21:10:22.402Z,10.10
2017-09-03T21:12:50.652Z,8.07
2017-09-03T21:15:19.714Z,7.90
2017-09-03T21:17:47.979Z,4.70
2017-09-03T21:20:16.246Z,6.70
2017-09-03T21:22:44.524Z,8.07
2017-09-03T21:25:12.814Z,5.40
2017-09-03T21:27:41.066Z,6.70
2017-09-03T21:30:09.301Z,7.27
2017-09-03T21:32:37.689Z,7.67
2017-09-03T21:35:05.950Z,6.90
2017-09-03T21:37:35.054Z,7.43
2017-09-03T21:40:03.303Z,11.73
2017-09-03T21:42:31.642Z,7.17
2017-09-03T21:44:59.978Z,7.30
2017-09-03T21:47:28.394Z,7.33
2017-09-03T21:49:56.620Z,7.80
2017-09-03T21:52:25.643Z,11.50
2017-09-03T21:54:53.941Z,6.60
2017-09-03T21:57:22.490Z,8.07
2017-09-03T21:59:50.728Z,6.73
2017-09-03T22:02:19.007Z,7.30
2017-09-03T22:04:47.357Z,7.17
2017-09-03T22:07:15.687Z,6.33
2017-09-03T22:09:44.039Z,9.40
2017-09-03T22:12:12.283Z,7.10
2017-09-03T22:14:40.582Z,6.80
2017-09-03T22:17:09.790Z,9.00
2017-09-03T22:19:38.075Z,6.70
2017-09-03T22:22:06.356Z,8.07
2017-09-03T22:24:34.674Z,8.67
2017-09-03T22:27:03.017Z,6.70
2017-09-03T22:29:31.264Z,10.00
2017-09-03T22:31:59.592Z,7.70
2017-09-03T22:34:27.863Z,7.10
2017-09-03T22:36:56.284Z,7.40
2017-09-03T22:39:24.504Z,6.53
2017-09-03T22:41:52.855Z,7.43
2017-09-03T22:44:21.110Z,11.10
2017-09-03T22:46:49.381Z,6.70
2017-09-03T22:49:17.643Z,12.40
2017-09-03T22:51:45.918Z,8.00
2017-09-03T22:54:14.183Z,7.33
2017-09-03T22:56:42.446Z,7.30
2017-09-03T22:59:11.490Z,6.27
2017-09-03T23:01:39.759Z,6.67
2017-09-03T23:04:08.044Z,6.53
2017-09-03T23:06:36.302Z,8.83
2017-09-03T23:09:04.605Z,7.07
2017-09-03T23:11:32.886Z,6.70
2017-09-03T23:14:01.127Z,8.80
2017-09-03T23:16:30.151Z,6.70
2017-09-03T23:18:58.452Z,7.93
2017-09-03T23:21:26.730Z,7.03
2017-09-03T23:23:54.970Z,9.53
2017-09-03T23:26:23.234Z,6.60
2017-09-03T23:28:51.471Z,6.80
2017-09-03T23:31:19.763Z,8.27
2017-09-03T23:33:48.032Z,6.50
2017-09-03T23:36:16.296Z,7.40
2017-09-03T23:38:44.599Z,6.17
2017-09-03T23:41:12.980Z,7.47
2017-09-03T23:43:42.068Z,9.47
2017-09-03T23:46:10.300Z,6.20
2017-09-03T23:48:38.639Z,6.47
2017-09-03T23:51:06.918Z,7.90
2017-09-03T23:53:35.190Z,7.83
2017-09-03T23:56:09.382Z,7.30
2017-09-03T23:58:37.619Z,6.97
